createdAt,value
2022-09-12T17:47:55.676Z,15.90
2022-09-12T18:01:19.338Z,15.30
2022-09-12T18:08:54.116Z,14.70
2022-09-12T18:11:30.942Z,14.50
2022-09-12T18:24:27.744Z,14.50
2022-09-12T18:34:52.764Z,14.30
2022-09-12T18:37:22.584Z,14.40
2022-09-12T18:39:50.355Z,13.80
2022-09-12T18:42:18.245Z,13.60
2022-09-12T18:44:46.001Z,13.20
2022-09-12T18:47:13.873Z,13.70
2022-09-12T18:49:44.529Z,13.50
2022-09-12T18:52:59.129Z,13.50
2022-09-12T18:55:27.669Z,13.50
2022-09-12T18:57:55.922Z,13.70
2022-09-12T19:00:23.677Z,13.50
2022-09-12T19:02:51.757Z,13.40
2022-09-12T19:05:19.749Z,13.30
2022-09-12T19:07:47.451Z,13.30
2022-09-12T19:10:15.021Z,13.70
2022-09-12T19:12:43.776Z,13.20
2022-09-12T19:15:11.586Z,13.20
2022-09-12T19:17:39.126Z,13.00
2022-09-12T19:20:12.449Z,12.90
2022-09-12T19:23:48.526Z,12.80
2022-09-12T19:26:18.348Z,12.80
2022-09-12T19:28:46.242Z,12.70
2022-09-12T19:31:19.043Z,13.00
2022-09-12T19:33:47.420Z,12.80
2022-09-12T19:36:43.298Z,13.20
2022-09-12T19:39:06.134Z,12.70
2022-09-12T19:41:34.227Z,12.50
2022-09-12T19:44:02.061Z,13.00
2022-09-12T19:46:29.647Z,12.30
2022-09-12T19:48:57.363Z,12.60
2022-09-12T19:51:28.411Z,12.60
2022-09-12T19:54:38.727Z,12.40
2022-09-12T19:57:09.207Z,12.40
2022-09-12T19:59:38.882Z,12.30
2022-09-12T20:02:06.416Z,12.50
2022-09-12T20:04:34.095Z,13.50
2022-09-12T20:07:04.322Z,12.20
2022-09-12T20:09:31.712Z,11.90
2022-09-12T20:11:59.371Z,12.20
2022-09-12T20:14:26.809Z,12.20
2022-09-12T20:16:54.332Z,12.10
2022-09-12T20:19:22.372Z,12.10
2022-09-12T20:21:49.873Z,11.50
2022-09-12T20:24:20.887Z,12.20
2022-09-12T20:26:48.495Z,11.90
2022-09-12T20:29:15.936Z,11.90
2022-09-12T20:31:44.120Z,11.80
2022-09-12T20:34:15.628Z,11.90
2022-09-12T20:36:43.065Z,11.70
2022-09-12T20:39:17.044Z,11.90
2022-09-12T20:41:44.603Z,12.20
2022-09-12T20:44:12.321Z,11.90
2022-09-12T20:46:40.013Z,12.20
2022-09-12T20:49:08.777Z,12.10
2022-09-12T20:51:36.793Z,12.00
2022-09-12T20:54:07.887Z,12.10
2022-09-12T20:56:36.459Z,11.80
2022-09-12T20:59:04.928Z,11.60
2022-09-12T21:01:32.883Z,11.90
2022-09-12T21:04:01.181Z,11.90
2022-09-12T21:06:29.292Z,11.80
2022-09-12T21:09:00.545Z,11.80
2022-09-12T21:11:28.833Z,11.70
2022-09-12T21:13:56.530Z,11.70
2022-09-12T21:16:24.262Z,11.70
2022-09-12T21:18:59.436Z,11.60
2022-09-12T21:21:27.049Z,11.80
2022-09-12T21:24:00.601Z,11.60
2022-09-12T21:26:28.286Z,11.60
2022-09-12T21:28:55.975Z,11.60
2022-09-12T21:31:24.196Z,12.00
2022-09-12T21:33:51.903Z,11.50
2022-09-12T21:36:19.454Z,11.70
2022-09-12T21:38:47.003Z,11.50
2022-09-12T21:41:16.503Z,11.70
2022-09-12T21:43:44.263Z,11.70
2022-09-12T21:46:12.113Z,11.60
2022-09-12T21:48:39.706Z,11.40
2022-09-12T21:51:07.507Z,11.40
2022-09-12T21:54:15.582Z,11.30
2022-09-12T21:56:43.360Z,11.30
2022-09-12T21:59:11.000Z,11.40
2022-09-12T22:01:44.741Z,11.60
2022-09-12T22:04:14.650Z,11.50
2022-09-12T22:06:42.159Z,11.30
2022-09-12T22:09:10.010Z,11.30
2022-09-12T22:11:37.779Z,12.00
2022-09-12T22:14:05.536Z,11.30
2022-09-12T22:16:33.897Z,11.10
2022-09-12T22:19:01.545Z,11.00
2022-09-12T22:21:29.031Z,11.10
2022-09-12T22:24:15.427Z,11.10
2022-09-12T22:26:44.803Z,11.10
2022-09-12T22:29:13.329Z,11.20
2022-09-12T22:31:40.883Z,11.10
2022-09-12T22:34:08.504Z,11.30
2022-09-12T22:36:38.770Z,11.50
2022-09-12T22:39:07.344Z,11.10
2022-09-12T22:41:34.804Z,11.00
2022-09-12T22:44:02.416Z,11.40
2022-09-12T22:46:30.525Z,10.90
2022-09-12T22:48:59.256Z,11.20
2022-09-12T22:51:27.071Z,11.00
2022-09-12T22:54:05.640Z,11.10
2022-09-12T22:56:33.889Z,11.30
2022-09-12T22:59:01.719Z,11.00
2022-09-12T23:01:31.828Z,11.30
2022-09-12T23:03:59.401Z,11.00
2022-09-12T23:06:26.864Z,10.90
2022-09-12T23:08:57.490Z,10.90
2022-09-12T23:11:25.122Z,10.90
2022-09-12T23:13:52.589Z,10.70
2022-09-12T23:16:25.797Z,10.50
2022-09-12T23:18:53.490Z,10.50
2022-09-12T23:21:22.084Z,10.30
2022-09-12T23:23:50.176Z,10.60
2022-09-12T23:26:20.293Z,10.50
2022-09-12T23:28:55.855Z,10.60
2022-09-12T23:31:25.091Z,10.50
2022-09-12T23:33:54.010Z,10.40
2022-09-12T23:36:22.429Z,10.70
2022-09-12T23:38:50.214Z,10.30
2022-09-12T23:41:18.979Z,10.60
2022-09-12T23:43:47.050Z,10.40
2022-09-12T23:46:16.038Z,10.40
2022-09-12T23:48:44.105Z,10.10
2022-09-12T23:51:12.316Z,10.60
2022-09-12T23:54:11.905Z,10.60
2022-09-12T23:56:39.357Z,10.50
2022-09-12T23:59:06.957Z,10.50
